Terminal Aerodrome Forecast
Issued by NWS Sioux Falls, SD

Home | Current Version | Previous Version | Text Only | Print | Product List | Glossary On
Versions: 1 2 3 4 5 6 7 8 9 10 11 12 13
861
FTUS43 KFSD 251922 AAA
TAFFSD
TAF AMD
KFSD 251922Z 2519/2618 33011G18KT P6SM FEW200
     FM260100 33007KT P6SM SCT100
     FM260700 VRB03KT P6SM SCT130
     FM261600 03007KT P6SM FEW250=

USA.gov is the U.S. government's official web portal to all federal, state and local government web resources and services.